createdAt,value
2022-10-02T00:00:19.169Z,59385.16
2022-10-02T00:03:11.107Z,59393.44
2022-10-02T00:05:43.585Z,59395.53
2022-10-02T00:08:15.951Z,59414.16
2022-10-02T00:10:48.273Z,59376.88
2022-10-02T00:13:26.629Z,59296.13
2022-10-02T00:15:53.450Z,59399.66
2022-10-02T00:18:26.111Z,59401.72
2022-10-02T00:21:05.030Z,59563.25
2022-10-02T00:23:44.477Z,59436.94
2022-10-02T00:26:17.255Z,59389.31
2022-10-02T00:28:51.182Z,59478.34
2022-10-02T00:31:33.290Z,59784.78
2022-10-02T00:34:02.602Z,59550.81
2022-10-02T00:36:35.630Z,59550.81
2022-10-02T00:39:15.480Z,59546.66
2022-10-02T00:41:50.877Z,59608.78
2022-10-02T00:44:28.413Z,59563.25
2022-10-02T00:47:16.095Z,59644.00
2022-10-02T00:50:19.397Z,59633.63
2022-10-02T00:52:48.721Z,59633.63
2022-10-02T00:55:30.299Z,59625.34
2022-10-02T00:57:56.617Z,59652.28
2022-10-02T01:00:23.308Z,59612.94
2022-10-02T01:03:18.344Z,59695.75
2022-10-02T01:05:45.183Z,59660.56
2022-10-02T01:08:11.633Z,59652.28
2022-10-02T01:10:38.314Z,59602.59
2022-10-02T01:13:05.052Z,59714.41
2022-10-02T01:15:52.890Z,59683.34
2022-10-02T01:18:21.683Z,59664.69
2022-10-02T01:20:53.550Z,59708.19
2022-10-02T01:23:23.207Z,59617.06
2022-10-02T01:25:50.002Z,59583.94
2022-10-02T01:28:17.007Z,59625.34
2022-10-02T01:30:48.108Z,59826.22
2022-10-02T01:33:14.373Z,59569.44
2022-10-02T01:35:41.108Z,59569.44
2022-10-02T01:38:13.665Z,59631.56
2022-10-02T01:40:40.884Z,59633.63
2022-10-02T01:43:17.488Z,59625.34
2022-10-02T01:45:52.070Z,59623.28
2022-10-02T01:48:37.062Z,59652.28
2022-10-02T01:51:29.174Z,59718.53
2022-10-02T01:54:34.277Z,59670.91
2022-10-02T01:57:06.583Z,59733.03
2022-10-02T01:59:44.755Z,59687.47
2022-10-02T02:02:24.206Z,59646.06
2022-10-02T02:05:15.039Z,59629.50
2022-10-02T02:07:49.281Z,59637.78
2022-10-02T02:10:25.499Z,59515.63
2022-10-02T02:13:02.703Z,59513.53
2022-10-02T02:15:33.509Z,59523.91
2022-10-02T02:18:31.242Z,59499.06
2022-10-02T02:21:04.189Z,59496.97
2022-10-02T02:23:32.928Z,59561.16
2022-10-02T02:26:04.216Z,59648.13
2022-10-02T02:28:32.733Z,59447.28
2022-10-02T02:31:00.819Z,59451.44
2022-10-02T02:33:37.138Z,59474.19
2022-10-02T02:36:07.449Z,59501.13
2022-10-02T02:38:38.305Z,59486.63
2022-10-02T02:41:09.028Z,59482.47
2022-10-02T02:43:42.767Z,59490.78
2022-10-02T02:46:22.056Z,59528.03
2022-10-02T02:48:52.743Z,59546.66
2022-10-02T02:51:23.675Z,59523.91
2022-10-02T02:53:51.882Z,59534.25
2022-10-02T02:56:20.225Z,59509.41
2022-10-02T02:58:52.001Z,59490.78
2022-10-02T03:01:18.576Z,59631.56
2022-10-02T03:03:45.199Z,59569.44
2022-10-02T03:06:20.303Z,59699.91
2022-10-02T03:08:50.269Z,59654.34
2022-10-02T03:11:55.287Z,59697.81
2022-10-02T03:14:33.791Z,59658.50
2022-10-02T03:17:25.102Z,59635.72
2022-10-02T03:20:23.802Z,59644.00
2022-10-02T03:23:19.947Z,59757.88
2022-10-02T03:26:21.912Z,59631.56
2022-10-02T03:28:56.648Z,59596.38
2022-10-02T03:31:25.616Z,59623.28
2022-10-02T03:33:53.747Z,59619.16
2022-10-02T03:36:24.489Z,59615.00
2022-10-02T03:39:12.608Z,59610.88
2022-10-02T03:41:39.199Z,59650.19
2022-10-02T03:44:05.657Z,59666.78
2022-10-02T03:46:32.228Z,59695.75
2022-10-02T03:48:58.870Z,59656.41
2022-10-02T03:51:25.278Z,59662.63
2022-10-02T03:53:52.260Z,59666.78
2022-10-02T03:56:50.124Z,59691.63
2022-10-02T03:59:45.784Z,59668.84
2022-10-02T04:02:28.245Z,59720.59
2022-10-02T04:05:02.264Z,59741.31
2022-10-02T04:07:37.399Z,59863.47
2022-10-02T04:10:12.827Z,59805.50
2022-10-02T04:12:42.200Z,60022.94
2022-10-02T04:15:16.612Z,59757.88
2022-10-02T04:18:16.001Z,59811.72
2022-10-02T04:20:47.579Z,59747.53
2022-10-02T04:23:32.238Z,59791.00
2022-10-02T04:26:08.715Z,59799.28
2022-10-02T04:28:39.681Z,60002.22
2022-10-02T04:31:10.602Z,59772.38
2022-10-02T04:33:38.540Z,59722.69
2022-10-02T04:36:17.894Z,59728.88
2022-10-02T04:39:10.486Z,59791.00
2022-10-02T04:41:39.575Z,59764.09
2022-10-02T04:44:30.634Z,59726.81
2022-10-02T04:47:34.231Z,59757.88
2022-10-02T04:50:12.834Z,59720.59
2022-10-02T04:52:51.360Z,59701.97
2022-10-02T04:55:59.636Z,59685.41
2022-10-02T04:58:29.096Z,59704.03
2022-10-02T05:00:58.420Z,59695.75
2022-10-02T05:03:49.495Z,59650.19
2022-10-02T05:06:34.373Z,59691.63
2022-10-02T05:09:16.860Z,59948.38
2022-10-02T05:12:09.584Z,59658.50
2022-10-02T05:14:53.185Z,59631.56
2022-10-02T05:17:40.637Z,59708.19
2022-10-02T05:20:29.011Z,59646.06
2022-10-02T05:23:14.225Z,59718.53
2022-10-02T05:26:01.745Z,59892.47
2022-10-02T05:29:03.197Z,59757.88
2022-10-02T05:31:48.223Z,59716.47
2022-10-02T05:34:26.773Z,59728.88
2022-10-02T05:36:56.417Z,59737.16
2022-10-02T05:39:27.647Z,59718.53
2022-10-02T05:42:03.013Z,59741.31
2022-10-02T05:44:42.359Z,59679.19
2022-10-02T05:47:18.064Z,59714.41
2022-10-02T05:49:58.841Z,59770.31
2022-10-02T05:53:06.153Z,59764.09
2022-10-02T05:55:40.989Z,59772.38
2022-10-02T05:58:23.464Z,59782.72
2022-10-02T06:01:06.560Z,59770.31
2022-10-02T06:03:58.777Z,59782.72
2022-10-02T06:06:47.087Z,59836.56
2022-10-02T06:09:19.972Z,59805.50
2022-10-02T06:11:58.280Z,59807.56
2022-10-02T06:14:30.874Z,59824.13
2022-10-02T06:17:04.567Z,59687.47
2022-10-02T06:19:37.723Z,59853.13
2022-10-02T06:22:17.357Z,59811.72
2022-10-02T06:25:02.466Z,59849.00
2022-10-02T06:27:38.957Z,59813.78
2022-10-02T06:30:17.157Z,60105.78
2022-10-02T06:33:09.886Z,59902.84
2022-10-02T06:35:48.266Z,59960.81
2022-10-02T06:38:18.247Z,59892.47
2022-10-02T06:41:09.914Z,59911.13
2022-10-02T06:44:17.733Z,59948.38
2022-10-02T06:46:51.521Z,59973.25
2022-10-02T06:49:36.648Z,59952.53
2022-10-02T06:52:12.689Z,59904.91
2022-10-02T06:54:46.146Z,59915.25
2022-10-02T06:57:18.534Z,59940.09
2022-10-02T07:00:12.198Z,60014.66
2022-10-02T07:02:47.477Z,59956.66
2022-10-02T07:05:29.207Z,60000.16
2022-10-02T07:08:07.549Z,60006.38
2022-10-02T07:10:39.223Z,59960.81
2022-10-02T07:13:17.885Z,59967.03
2022-10-02T07:16:12.537Z,60089.19
2022-10-02T07:18:45.038Z,60051.94
2022-10-02T07:21:23.577Z,60105.78
2022-10-02T07:23:57.789Z,60167.91
2022-10-02T07:26:49.657Z,60161.69
2022-10-02T07:29:33.320Z,60107.84
2022-10-02T07:32:12.092Z,60159.63
2022-10-02T07:34:53.421Z,60292.16
2022-10-02T07:37:33.997Z,60395.72
2022-10-02T07:40:31.671Z,60333.56
2022-10-02T07:43:07.024Z,60573.81
2022-10-02T07:45:39.656Z,60250.75
2022-10-02T07:48:09.066Z,60310.78
2022-10-02T07:50:37.601Z,60244.53
2022-10-02T07:53:26.307Z,60290.09
2022-10-02T07:55:53.875Z,60354.28
2022-10-02T07:58:30.236Z,60377.06
2022-10-02T08:01:01.376Z,60362.56
2022-10-02T08:03:43.588Z,60296.31
2022-10-02T08:06:10.486Z,60381.22
2022-10-02T08:08:49.262Z,60468.19
2022-10-02T08:11:28.284Z,60432.97
2022-10-02T08:13:58.347Z,60548.97
2022-10-02T08:16:29.951Z,60691.88
2022-10-02T08:19:03.483Z,60749.88
2022-10-02T08:21:35.119Z,60766.44
2022-10-02T08:24:06.293Z,60606.97
2022-10-02T08:26:42.965Z,60625.59
2022-10-02T08:29:22.667Z,60679.44
2022-10-02T08:31:52.149Z,60611.09
2022-10-02T08:34:21.563Z,60606.97
2022-10-02T08:36:59.688Z,60582.09
2022-10-02T08:39:52.749Z,60532.41
2022-10-02T08:42:37.555Z,60631.81
2022-10-02T08:45:18.935Z,60644.25
2022-10-02T08:48:33.822Z,60646.31
2022-10-02T08:51:25.503Z,60681.53
2022-10-02T08:54:12.115Z,60538.63
2022-10-02T08:56:58.442Z,60722.94
2022-10-02T09:00:02.961Z,60644.25
2022-10-02T09:03:02.109Z,60698.09
2022-10-02T09:05:31.972Z,60640.09
2022-10-02T09:08:36.794Z,60656.66
2022-10-02T09:11:36.561Z,60592.47
2022-10-02T09:14:27.049Z,60627.66
2022-10-02T09:17:10.418Z,60638.03
2022-10-02T09:19:41.562Z,60687.72
2022-10-02T09:22:47.944Z,60803.72
2022-10-02T09:25:20.197Z,60764.38
2022-10-02T09:28:18.006Z,60814.06
2022-10-02T09:30:47.842Z,60739.50
2022-10-02T09:33:35.202Z,60797.50
2022-10-02T09:36:57.459Z,60795.44
2022-10-02T09:39:34.873Z,60851.38
2022-10-02T09:42:39.152Z,60756.09
2022-10-02T09:45:42.794Z,60772.66
2022-10-02T09:48:15.351Z,60780.94
2022-10-02T09:51:10.041Z,60861.72
2022-10-02T09:54:33.350Z,61077.13
2022-10-02T09:57:24.847Z,61060.56
2022-10-02T10:00:16.487Z,61075.06
2022-10-02T10:03:19.008Z,61325.72
2022-10-02T10:06:02.662Z,61180.72
2022-10-02T10:09:02.165Z,61348.50
2022-10-02T10:11:50.707Z,61222.13
2022-10-02T10:14:56.547Z,61400.28
2022-10-02T10:18:07.435Z,61143.41
2022-10-02T10:21:01.697Z,61284.28
2022-10-02T10:23:30.207Z,61099.91
2022-10-02T10:26:38.978Z,61118.56
2022-10-02T10:29:45.411Z,60948.72
2022-10-02T10:32:18.830Z,61191.06
2022-10-02T10:34:48.069Z,61267.72
2022-10-02T10:37:45.452Z,61458.28
2022-10-02T10:40:38.346Z,61505.94
2022-10-02T10:43:26.723Z,61559.81
2022-10-02T10:46:07.824Z,62247.66
2022-10-02T10:48:49.346Z,62214.50
2022-10-02T10:51:35.220Z,62701.44
2022-10-02T10:54:17.122Z,62521.16
2022-10-02T10:56:46.260Z,62591.63
2022-10-02T10:59:34.502Z,62336.75
2022-10-02T11:02:29.596Z,61804.25
2022-10-02T11:05:07.090Z,62077.75
2022-10-02T11:07:52.775Z,62320.16
2022-10-02T11:10:37.899Z,62237.28
2022-10-02T11:13:20.250Z,62305.66
2022-10-02T11:16:13.456Z,62253.84
2022-10-02T11:18:56.001Z,61845.69
2022-10-02T11:22:00.928Z,62359.53
2022-10-02T11:24:37.478Z,62152.34
2022-10-02T11:27:40.852Z,62562.59
2022-10-02T11:30:20.320Z,62313.94
2022-10-02T11:33:20.349Z,61926.50
2022-10-02T11:36:05.149Z,61798.03
2022-10-02T11:38:53.080Z,62032.16
2022-10-02T11:41:39.052Z,62028.03
2022-10-02T11:44:33.573Z,62245.56
2022-10-02T11:47:21.273Z,62376.09
2022-10-02T11:50:18.947Z,62309.81
2022-10-02T11:52:54.307Z,62332.59
2022-10-02T11:55:43.866Z,62208.28
2022-10-02T11:58:27.684Z,61876.78
2022-10-02T12:01:00.185Z,61665.44
2022-10-02T12:03:51.158Z,61551.50
2022-10-02T12:06:23.597Z,61690.31
2022-10-02T12:09:08.955Z,61638.53
2022-10-02T12:11:37.969Z,61980.38
2022-10-02T12:14:45.923Z,61887.13
2022-10-02T12:17:24.122Z,61928.56
2022-10-02T12:20:30.546Z,61827.06
2022-10-02T12:24:04.000Z,61899.56
2022-10-02T12:27:13.569Z,61777.31
2022-10-02T12:30:16.308Z,61636.44
2022-10-02T12:33:07.983Z,61555.66
2022-10-02T12:35:52.763Z,61559.81
2022-10-02T12:38:49.753Z,61816.69
2022-10-02T12:41:47.069Z,61464.50
2022-10-02T12:44:58.131Z,61249.06
2022-10-02T12:47:35.316Z,61164.13
2022-10-02T12:50:36.611Z,60975.63
2022-10-02T12:53:29.109Z,60913.50
2022-10-02T12:56:37.037Z,60818.22
2022-10-02T12:59:49.951Z,60749.88
2022-10-02T13:02:56.256Z,60677.38
2022-10-02T13:06:03.464Z,60644.25
2022-10-02T13:08:51.656Z,60588.31
2022-10-02T13:11:27.186Z,60629.75
2022-10-02T13:14:11.946Z,60629.75
2022-10-02T13:16:57.901Z,60617.31
2022-10-02T13:19:59.725Z,60677.38
2022-10-02T13:22:42.434Z,60766.44
2022-10-02T13:25:27.135Z,60739.50
2022-10-02T13:28:31.058Z,60745.72
2022-10-02T13:30:57.401Z,60741.59
2022-10-02T13:33:38.812Z,60718.81
2022-10-02T13:36:12.981Z,60979.78
2022-10-02T13:38:56.609Z,60712.59
2022-10-02T13:41:46.559Z,60675.31
2022-10-02T13:44:33.881Z,60658.75
2022-10-02T13:47:07.806Z,60627.66
2022-10-02T13:49:53.993Z,60698.09
2022-10-02T13:52:36.198Z,60557.25
2022-10-02T13:55:28.998Z,60598.66
2022-10-02T13:58:14.176Z,60669.09
2022-10-02T14:00:50.308Z,60592.47
2022-10-02T14:03:44.590Z,60652.53
2022-10-02T14:06:34.993Z,60656.66
2022-10-02T14:09:11.007Z,60565.53
2022-10-02T14:11:43.475Z,60675.31
2022-10-02T14:14:12.836Z,60768.50
2022-10-02T14:17:03.739Z,60903.16
2022-10-02T14:20:00.581Z,60979.78
2022-10-02T14:22:58.967Z,60884.50
2022-10-02T14:25:56.807Z,60789.22
2022-10-02T14:28:29.326Z,60718.81
2022-10-02T14:31:17.594Z,60725.00
2022-10-02T14:33:51.585Z,60667.03
2022-10-02T14:36:24.495Z,60638.03
2022-10-02T14:39:09.203Z,60606.97
2022-10-02T14:41:51.598Z,60577.97
2022-10-02T14:44:28.466Z,60528.25
2022-10-02T14:47:34.775Z,60548.97
2022-10-02T14:50:28.725Z,60499.25
2022-10-02T14:53:19.536Z,60486.84
2022-10-02T14:55:49.034Z,60470.25
2022-10-02T14:58:40.256Z,60445.41
2022-10-02T15:01:18.021Z,60466.13
2022-10-02T15:04:16.427Z,60710.50
2022-10-02T15:07:04.290Z,60863.78
2022-10-02T15:10:02.760Z,61199.34
2022-10-02T15:12:43.510Z,61408.56
2022-10-02T15:15:18.970Z,61553.59
2022-10-02T15:17:57.389Z,61421.00
2022-10-02T15:20:59.385Z,61553.59
2022-10-02T15:23:45.034Z,61621.94
2022-10-02T15:26:33.133Z,61642.66
2022-10-02T15:29:37.026Z,61445.84
2022-10-02T15:32:45.285Z,61470.72
2022-10-02T15:35:48.319Z,61522.50
2022-10-02T15:38:40.385Z,61350.56
2022-10-02T15:41:12.870Z,61282.22
2022-10-02T15:44:21.950Z,61425.16
2022-10-02T15:47:07.065Z,61526.66
2022-10-02T15:49:51.531Z,61611.59
2022-10-02T15:52:33.097Z,61597.09
2022-10-02T15:55:25.034Z,61742.09
2022-10-02T15:58:15.290Z,61526.66
2022-10-02T16:01:03.538Z,61340.22
2022-10-02T16:03:50.925Z,61133.06
2022-10-02T16:06:53.402Z,61075.06
2022-10-02T16:09:39.556Z,60888.66
2022-10-02T16:12:15.077Z,60863.78
2022-10-02T16:14:55.869Z,60789.22
2022-10-02T16:17:33.880Z,60824.44
2022-10-02T16:20:19.131Z,60648.38
2022-10-02T16:22:50.178Z,60563.47
2022-10-02T16:25:44.061Z,60677.38
2022-10-02T16:28:13.776Z,60375.00
2022-10-02T16:30:56.053Z,60294.22
2022-10-02T16:33:42.717Z,60408.13
2022-10-02T16:36:23.462Z,60254.88
2022-10-02T16:38:51.940Z,60184.47
2022-10-02T16:41:36.758Z,60140.97
2022-10-02T16:44:22.244Z,60022.94
2022-10-02T16:46:54.549Z,60049.84
2022-10-02T16:49:42.283Z,59981.53
2022-10-02T16:52:30.676Z,59967.03
2022-10-02T16:55:21.287Z,59861.41
2022-10-02T16:57:54.070Z,59853.13
2022-10-02T17:00:26.124Z,59838.63
2022-10-02T17:03:12.934Z,59778.59
2022-10-02T17:05:49.423Z,59788.94
2022-10-02T17:08:39.220Z,59743.38
2022-10-02T17:11:20.173Z,59786.88
2022-10-02T17:14:01.809Z,59764.09
2022-10-02T17:16:56.205Z,59735.09
2022-10-02T17:19:27.601Z,59658.50
2022-10-02T17:21:59.317Z,59594.28
2022-10-02T17:25:00.290Z,59567.38
2022-10-02T17:27:32.719Z,59515.63
2022-10-02T17:30:12.309Z,59507.34
2022-10-02T17:32:50.143Z,59410.00
2022-10-02T17:35:39.979Z,59360.31
2022-10-02T17:38:09.087Z,59436.94
2022-10-02T17:40:57.915Z,59360.31
2022-10-02T17:43:24.512Z,59347.91
2022-10-02T17:46:00.909Z,59285.78
2022-10-02T17:48:43.450Z,59312.69
2022-10-02T17:51:51.396Z,59341.69
2022-10-02T17:54:55.858Z,59374.81
2022-10-02T17:57:44.017Z,59273.38
2022-10-02T18:00:17.564Z,59248.53
2022-10-02T18:02:50.464Z,59256.81
2022-10-02T18:05:53.586Z,59277.50
2022-10-02T18:08:36.841Z,59252.66
2022-10-02T18:11:07.859Z,59219.53
2022-10-02T18:13:39.354Z,59198.81
2022-10-02T18:16:29.553Z,59142.94
2022-10-02T18:19:14.863Z,59078.75
2022-10-02T18:22:03.320Z,59062.19
2022-10-02T18:24:32.585Z,59020.78
2022-10-02T18:27:06.271Z,59029.06
2022-10-02T18:29:46.789Z,59000.06
2022-10-02T18:32:31.986Z,59033.19
2022-10-02T18:35:09.562Z,58991.78
2022-10-02T18:37:59.036Z,59037.34
2022-10-02T18:40:34.027Z,58966.94
2022-10-02T18:43:06.595Z,58981.44
2022-10-02T18:45:46.571Z,59033.19
2022-10-02T18:48:19.982Z,59033.19
2022-10-02T18:51:11.346Z,59047.69
2022-10-02T18:54:11.499Z,59018.72
2022-10-02T18:56:59.620Z,59014.56
2022-10-02T18:59:55.210Z,58962.81
2022-10-02T19:02:36.485Z,58966.94
2022-10-02T19:05:32.213Z,59029.06
2022-10-02T19:08:04.472Z,59053.91
2022-10-02T19:10:30.772Z,59097.38
2022-10-02T19:13:04.672Z,59070.47
2022-10-02T19:15:32.571Z,59113.94
2022-10-02T19:18:36.734Z,59136.72
2022-10-02T19:21:29.353Z,59128.44
2022-10-02T19:24:04.547Z,59132.56
2022-10-02T19:26:33.855Z,59095.31
2022-10-02T19:29:00.202Z,59111.88
2022-10-02T19:31:28.533Z,59159.50
2022-10-02T19:34:17.727Z,59176.06
2022-10-02T19:36:50.132Z,59436.94
2022-10-02T19:39:20.589Z,59149.13
2022-10-02T19:41:47.225Z,59099.44
2022-10-02T19:45:03.081Z,59169.84
2022-10-02T19:47:43.155Z,59136.72
2022-10-02T19:50:20.051Z,59327.19
2022-10-02T19:52:54.265Z,59231.97
2022-10-02T19:55:26.639Z,59329.25
2022-10-02T19:57:57.277Z,59161.56
2022-10-02T20:00:23.738Z,59169.84
2022-10-02T20:02:56.126Z,59153.28
2022-10-02T20:05:28.249Z,59147.06
2022-10-02T20:08:06.475Z,59298.22
2022-10-02T20:10:43.660Z,59356.19
2022-10-02T20:13:17.946Z,59124.28
2022-10-02T20:16:10.186Z,59140.84
2022-10-02T20:18:37.127Z,59147.06
2022-10-02T20:21:15.844Z,59126.38
2022-10-02T20:23:48.216Z,59095.31
2022-10-02T20:26:17.155Z,59035.28
2022-10-02T20:28:48.079Z,59055.97
2022-10-02T20:31:20.486Z,59058.03
2022-10-02T20:33:49.884Z,58925.53
2022-10-02T20:36:19.710Z,58937.97
2022-10-02T20:38:55.179Z,58937.97
2022-10-02T20:41:24.448Z,58933.81
2022-10-02T20:44:04.252Z,58884.13
2022-10-02T20:46:33.663Z,58857.22
2022-10-02T20:49:18.868Z,58871.72
2022-10-02T20:51:49.299Z,58830.31
2022-10-02T20:54:56.069Z,58855.16
2022-10-02T20:57:56.418Z,58855.16
2022-10-02T21:00:22.198Z,58813.75
2022-10-02T21:03:10.122Z,58803.41
2022-10-02T21:05:43.396Z,58749.56
2022-10-02T21:08:58.262Z,58778.56
2022-10-02T21:11:45.012Z,58714.38
2022-10-02T21:14:29.508Z,58776.50
2022-10-02T21:17:08.186Z,58730.94
2022-10-02T21:20:16.571Z,58743.38
2022-10-02T21:22:49.173Z,58712.31
2022-10-02T21:25:35.509Z,58689.53
2022-10-02T21:28:23.192Z,58681.25
2022-10-02T21:31:28.774Z,58666.78
2022-10-02T21:34:24.431Z,58656.41
2022-10-02T21:36:58.503Z,58604.66
2022-10-02T21:39:33.911Z,58627.44
2022-10-02T21:42:38.188Z,58648.13
2022-10-02T21:45:39.677Z,58579.81
2022-10-02T21:48:30.461Z,58623.28
2022-10-02T21:51:17.172Z,58631.56
2022-10-02T21:54:21.045Z,58581.91
2022-10-02T21:56:56.471Z,58557.06
2022-10-02T21:59:57.779Z,58602.59
2022-10-02T22:02:42.749Z,58590.19
2022-10-02T22:05:54.447Z,58617.09
2022-10-02T22:08:28.835Z,58567.41
2022-10-02T22:11:06.007Z,58550.84
2022-10-02T22:13:40.762Z,58523.94
2022-10-02T22:16:36.135Z,58579.81
2022-10-02T22:19:35.627Z,58503.22
2022-10-02T22:22:20.752Z,58548.78
2022-10-02T22:25:10.992Z,58515.66
2022-10-02T22:28:16.487Z,58515.66
2022-10-02T22:31:03.114Z,58461.84
2022-10-02T22:34:11.001Z,58532.22
2022-10-02T22:36:59.299Z,58468.03
2022-10-02T22:39:31.969Z,58658.50
2022-10-02T22:42:19.847Z,58441.13
2022-10-02T22:44:52.003Z,58459.75
2022-10-02T22:47:18.296Z,58457.69
2022-10-02T22:50:00.092Z,58503.22
2022-10-02T22:52:34.824Z,58453.56
2022-10-02T22:55:11.539Z,58439.06
2022-10-02T22:57:46.320Z,58449.41
2022-10-02T23:00:16.943Z,58445.28
2022-10-02T23:02:57.188Z,58451.47
2022-10-02T23:05:29.561Z,58399.72
2022-10-02T23:08:06.631Z,58374.88
2022-10-02T23:11:08.075Z,58370.75
2022-10-02T23:13:41.934Z,58399.72
2022-10-02T23:16:12.771Z,58362.47
2022-10-02T23:18:46.013Z,58383.16
2022-10-02T23:21:39.924Z,58383.16
2022-10-02T23:24:11.414Z,58323.13
2022-10-02T23:26:55.104Z,58617.09
2022-10-02T23:29:47.910Z,58354.19
2022-10-02T23:32:26.834Z,58449.41
2022-10-02T23:35:05.273Z,58298.31
2022-10-02T23:38:02.957Z,58362.47
2022-10-02T23:41:28.200Z,58333.50
2022-10-02T23:43:58.487Z,58308.66
2022-10-02T23:46:32.266Z,58275.53
2022-10-02T23:48:58.946Z,58261.03
2022-10-02T23:51:40.296Z,58275.53
2022-10-02T23:54:25.692Z,58277.59
2022-10-02T23:57:26.080Z,58296.22
